createdAt,value
2022-07-25T00:01:00.923Z,21.59
2022-07-25T00:04:04.233Z,21.56
2022-07-25T00:07:08.132Z,21.53
2022-07-25T00:10:12.993Z,21.50
2022-07-25T00:13:17.880Z,21.47
2022-07-25T00:16:20.937Z,21.42
2022-07-25T00:19:23.914Z,21.38
2022-07-25T00:22:27.112Z,21.32
2022-07-25T00:25:30.308Z,21.29
2022-07-25T00:28:34.532Z,21.22
2022-07-25T00:31:37.876Z,21.18
2022-07-25T00:34:40.888Z,21.14
2022-07-25T00:37:44.359Z,21.12
2022-07-25T00:40:47.382Z,21.12
2022-07-25T00:43:58.783Z,21.05
2022-07-25T00:47:02.390Z,21.04
2022-07-25T00:50:07.979Z,21.01
2022-07-25T00:53:11.367Z,20.96
2022-07-25T00:56:14.300Z,20.96
2022-07-25T00:59:19.086Z,20.91
2022-07-25T01:02:22.936Z,20.88
2022-07-25T01:05:28.306Z,20.83
2022-07-25T01:08:32.037Z,20.77
2022-07-25T01:11:35.240Z,20.71
2022-07-25T01:14:39.331Z,20.68
2022-07-25T01:17:42.186Z,20.65
2022-07-25T01:20:46.686Z,20.62
2022-07-25T01:23:49.829Z,20.60
2022-07-25T01:26:52.636Z,20.59
2022-07-25T01:29:56.123Z,20.58
2022-07-25T01:32:59.046Z,20.55
2022-07-25T01:36:03.571Z,20.55
2022-07-25T01:39:06.695Z,20.50
2022-07-25T01:42:09.657Z,20.41
2022-07-25T01:45:16.688Z,20.38
2022-07-25T01:48:19.948Z,20.34
2022-07-25T01:51:26.492Z,20.32
2022-07-25T01:54:30.000Z,20.30
2022-07-25T01:57:32.976Z,20.22
2022-07-25T02:00:36.360Z,20.16
2022-07-25T02:03:39.146Z,20.11
2022-07-25T02:06:43.702Z,20.06
2022-07-25T02:09:46.400Z,20.03
2022-07-25T02:12:49.299Z,20.03
2022-07-25T02:15:52.359Z,20.05
2022-07-25T02:18:55.145Z,20.09
2022-07-25T02:21:59.263Z,20.05
2022-07-25T02:25:01.944Z,20.10
2022-07-25T02:28:05.194Z,20.09
2022-07-25T02:31:08.312Z,20.09
2022-07-25T02:34:11.114Z,20.04
2022-07-25T02:37:15.174Z,20.04
2022-07-25T02:40:17.922Z,20.03
2022-07-25T02:43:21.415Z,19.94
2022-07-25T02:46:24.745Z,19.83
2022-07-25T02:49:27.463Z,19.79
2022-07-25T02:52:31.608Z,19.88
2022-07-25T02:55:34.351Z,19.88
2022-07-25T02:58:37.521Z,19.84
2022-07-25T03:01:42.177Z,19.81
2022-07-25T03:04:45.405Z,19.75
2022-07-25T03:07:49.419Z,19.69
2022-07-25T03:10:52.129Z,19.74
2022-07-25T03:13:55.391Z,19.77
2022-07-25T03:16:58.588Z,19.74
2022-07-25T03:20:01.904Z,19.73
2022-07-25T03:23:06.052Z,19.68
2022-07-25T03:26:08.779Z,19.71
2022-07-25T03:29:11.496Z,19.65
2022-07-25T03:32:14.495Z,19.68
2022-07-25T03:35:17.527Z,19.68
2022-07-25T03:38:21.541Z,19.59
2022-07-25T03:41:24.997Z,19.61
2022-07-25T03:44:30.649Z,19.54
2022-07-25T03:47:33.407Z,19.56
2022-07-25T03:50:36.089Z,19.58
2022-07-25T03:53:54.648Z,19.60
2022-07-25T03:56:57.366Z,19.62
2022-07-25T04:00:00.581Z,19.50
2022-07-25T04:03:03.659Z,19.51
2022-07-25T04:06:06.885Z,19.47
2022-07-25T04:09:11.529Z,19.47
2022-07-25T04:12:14.605Z,19.44
2022-07-25T04:15:17.649Z,19.47
2022-07-25T04:18:22.777Z,19.50
2022-07-25T04:21:31.389Z,19.54
2022-07-25T04:24:35.411Z,19.56
2022-07-25T04:27:38.974Z,19.62
2022-07-25T04:30:41.661Z,19.67
2022-07-25T04:33:44.867Z,19.70
2022-07-25T04:36:47.763Z,19.67
2022-07-25T04:39:52.302Z,19.72
2022-07-25T04:42:55.155Z,19.76
2022-07-25T04:45:58.461Z,19.81
2022-07-25T04:49:01.229Z,19.79
2022-07-25T04:52:04.377Z,19.74
2022-07-25T04:55:09.582Z,19.76
2022-07-25T04:58:12.328Z,19.83
2022-07-25T05:01:15.178Z,19.88
2022-07-25T05:04:18.147Z,19.97
2022-07-25T05:07:20.848Z,20.06
2022-07-25T05:10:25.742Z,20.48
2022-07-25T05:13:28.502Z,21.51
2022-07-25T05:16:31.322Z,22.40
2022-07-25T05:19:35.053Z,23.17
2022-07-25T05:22:37.832Z,23.57
2022-07-25T05:25:41.941Z,24.00
2022-07-25T05:28:44.668Z,24.50
2022-07-25T05:31:47.536Z,24.96
2022-07-25T05:34:50.300Z,25.29
2022-07-25T05:37:52.935Z,25.31
2022-07-25T05:40:57.521Z,25.69
2022-07-25T05:44:00.208Z,25.75
2022-07-25T05:47:03.029Z,25.63
2022-07-25T05:50:06.345Z,25.70
2022-07-25T05:53:09.234Z,26.22
2022-07-25T05:56:13.293Z,26.60
2022-07-25T05:59:15.943Z,26.57
2022-07-25T06:02:18.962Z,26.57
2022-07-25T06:05:21.710Z,26.55
2022-07-25T06:08:25.044Z,26.57
2022-07-25T06:11:30.955Z,26.56
2022-07-25T06:14:33.766Z,26.45
2022-07-25T06:17:36.589Z,26.47
2022-07-25T06:20:39.304Z,26.70
2022-07-25T06:23:42.064Z,26.88
2022-07-25T06:26:46.589Z,26.99
2022-07-25T06:29:49.433Z,27.28
2022-07-25T06:32:52.160Z,27.56
2022-07-25T06:35:54.893Z,27.74
2022-07-25T06:38:57.647Z,28.03
2022-07-25T06:42:04.414Z,28.11
2022-07-25T06:45:11.792Z,28.19
2022-07-25T06:48:14.547Z,28.26
2022-07-25T06:51:17.290Z,28.34
2022-07-25T06:54:19.978Z,28.42
2022-07-25T06:57:24.029Z,28.54
2022-07-25T07:00:26.910Z,28.65
2022-07-25T07:03:29.755Z,28.72
2022-07-25T07:06:32.531Z,28.71
2022-07-25T07:09:35.524Z,28.79
2022-07-25T07:12:39.657Z,28.82
2022-07-25T07:15:47.190Z,28.90
2022-07-25T07:18:49.890Z,28.87
2022-07-25T07:21:52.700Z,28.90
2022-07-25T07:24:56.624Z,29.00
2022-07-25T07:28:01.505Z,29.12
2022-07-25T07:31:16.405Z,29.14
2022-07-25T07:34:20.627Z,29.12
2022-07-25T07:37:23.290Z,29.13
2022-07-25T07:40:27.018Z,29.01
2022-07-25T07:43:31.975Z,29.18
2022-07-25T07:46:34.986Z,29.09
2022-07-25T07:49:37.750Z,29.09
2022-07-25T07:52:40.742Z,29.17
2022-07-25T07:55:45.349Z,29.23
2022-07-25T07:58:49.441Z,29.28
2022-07-25T08:01:52.339Z,29.30
2022-07-25T08:04:55.044Z,29.31
2022-07-25T08:07:58.328Z,29.29
2022-07-25T08:11:01.404Z,29.12
2022-07-25T08:14:07.477Z,28.58
2022-07-25T08:17:12.750Z,28.20
2022-07-25T08:20:36.760Z,28.07
2022-07-25T08:23:39.385Z,27.93
2022-07-25T08:26:47.687Z,27.92
2022-07-25T08:29:51.825Z,27.94
2022-07-25T08:32:57.280Z,28.00
2022-07-25T08:36:00.175Z,28.10
2022-07-25T08:39:03.243Z,28.24
2022-07-25T08:42:10.816Z,28.32
2022-07-25T08:45:17.909Z,28.42
2022-07-25T08:48:22.140Z,28.54
2022-07-25T08:51:25.250Z,28.65
2022-07-25T08:54:28.520Z,28.76
2022-07-25T08:57:31.314Z,28.91
2022-07-25T09:00:35.311Z,29.08
2022-07-25T09:03:38.012Z,29.25
2022-07-25T09:06:50.623Z,29.41
2022-07-25T09:09:53.289Z,29.57
2022-07-25T09:12:58.111Z,29.75
2022-07-25T09:16:05.576Z,29.91
2022-07-25T09:19:11.344Z,30.06
2022-07-25T09:22:14.575Z,30.19
2022-07-25T09:25:25.252Z,30.29
2022-07-25T09:28:27.938Z,30.46
2022-07-25T09:31:35.588Z,30.58
2022-07-25T09:34:40.155Z,30.73
2022-07-25T09:37:42.802Z,30.84
2022-07-25T09:40:55.695Z,30.95
2022-07-25T09:43:58.543Z,31.06
2022-07-25T09:47:12.746Z,31.16
2022-07-25T09:50:15.490Z,31.26
2022-07-25T09:53:18.963Z,31.33
2022-07-25T09:56:21.675Z,31.42
2022-07-25T09:59:24.478Z,31.49
2022-07-25T10:02:41.194Z,31.55
2022-07-25T10:05:58.699Z,31.61
2022-07-25T10:09:01.597Z,31.68
2022-07-25T10:12:05.412Z,31.91
2022-07-25T10:15:10.755Z,32.00
2022-07-25T10:18:15.490Z,32.08
2022-07-25T10:21:26.158Z,32.11
2022-07-25T10:24:34.869Z,32.18
2022-07-25T10:27:43.966Z,32.26
2022-07-25T10:30:47.602Z,32.30
2022-07-25T10:33:57.297Z,32.42
2022-07-25T10:37:10.772Z,32.56
2022-07-25T10:40:26.577Z,32.68
2022-07-25T10:43:29.559Z,32.76
2022-07-25T10:46:36.416Z,32.91
2022-07-25T10:50:13.494Z,33.13
2022-07-25T10:53:09.208Z,33.38
2022-07-25T10:56:19.872Z,33.52
2022-07-25T10:59:34.713Z,33.84
2022-07-25T11:02:37.647Z,34.04
2022-07-25T11:05:48.404Z,34.09
2022-07-25T11:08:51.610Z,34.16
2022-07-25T11:11:56.515Z,34.23
2022-07-25T11:15:03.082Z,34.49
2022-07-25T11:18:06.573Z,34.64
2022-07-25T11:21:10.925Z,34.75
2022-07-25T11:24:13.737Z,34.77
2022-07-25T11:27:23.194Z,34.75
2022-07-25T11:30:27.554Z,34.74
2022-07-25T11:33:30.455Z,34.83
2022-07-25T11:36:35.664Z,34.86
2022-07-25T11:39:40.932Z,34.95
2022-07-25T11:42:45.305Z,35.09
2022-07-25T11:45:57.459Z,35.23
2022-07-25T11:49:07.079Z,35.39
2022-07-25T11:52:21.434Z,35.46
2022-07-25T11:55:30.443Z,35.46
2022-07-25T11:58:33.167Z,35.44
2022-07-25T12:01:37.540Z,35.50
2022-07-25T12:04:40.273Z,35.70
2022-07-25T12:07:47.107Z,35.90
2022-07-25T12:10:51.855Z,36.01
2022-07-25T12:14:03.886Z,35.98
2022-07-25T12:17:06.601Z,36.07
2022-07-25T12:20:15.995Z,36.08
2022-07-25T12:23:21.731Z,35.97
2022-07-25T12:26:24.460Z,35.91
2022-07-25T12:29:27.152Z,35.98
2022-07-25T12:32:30.285Z,35.93
2022-07-25T12:35:34.679Z,36.19
2022-07-25T12:38:39.383Z,36.45
2022-07-25T12:41:43.154Z,36.51
2022-07-25T12:44:45.945Z,36.62
2022-07-25T12:47:49.794Z,36.83
2022-07-25T12:50:52.504Z,37.02
2022-07-25T12:53:57.148Z,37.12
2022-07-25T12:56:59.905Z,37.02
2022-07-25T13:00:02.987Z,36.78
2022-07-25T13:03:05.728Z,36.66
2022-07-25T13:06:09.102Z,36.58
2022-07-25T13:09:13.258Z,36.68
2022-07-25T13:12:16.679Z,36.62
2022-07-25T13:15:20.918Z,36.48
2022-07-25T13:18:23.894Z,36.40
2022-07-25T13:21:26.824Z,36.33
2022-07-25T13:24:31.084Z,36.26
2022-07-25T13:27:33.881Z,36.20
2022-07-25T13:30:36.553Z,36.21
2022-07-25T13:33:40.048Z,36.21
2022-07-25T13:36:42.715Z,36.17
2022-07-25T13:39:46.779Z,36.03
2022-07-25T13:42:49.448Z,35.97
2022-07-25T13:45:52.334Z,35.98
2022-07-25T13:48:56.458Z,35.71
2022-07-25T13:51:59.536Z,35.74
2022-07-25T13:55:03.555Z,35.82
2022-07-25T13:58:07.394Z,35.93
2022-07-25T14:01:11.625Z,35.87
2022-07-25T14:04:14.727Z,35.63
2022-07-25T14:07:17.460Z,35.42
2022-07-25T14:10:21.491Z,35.20
2022-07-25T14:13:24.397Z,35.13
2022-07-25T14:16:27.160Z,35.09
2022-07-25T14:19:30.140Z,34.94
2022-07-25T14:22:32.916Z,35.01
2022-07-25T14:25:37.084Z,35.16
2022-07-25T14:28:39.967Z,35.42
2022-07-25T14:31:42.996Z,35.45
2022-07-25T14:34:45.750Z,35.36
2022-07-25T14:37:48.531Z,35.19
2022-07-25T14:40:52.661Z,35.05
2022-07-25T14:43:55.349Z,34.91
2022-07-25T14:46:59.283Z,34.68
2022-07-25T14:50:02.013Z,34.52
2022-07-25T14:53:04.893Z,34.27
2022-07-25T14:56:09.237Z,34.11
2022-07-25T14:59:12.341Z,34.02
2022-07-25T15:02:15.083Z,34.03
2022-07-25T15:05:17.973Z,34.21
2022-07-25T15:08:21.007Z,34.44
2022-07-25T15:11:25.269Z,34.60
2022-07-25T15:14:27.932Z,34.86
2022-07-25T15:17:30.634Z,34.94
2022-07-25T15:20:33.353Z,35.08
2022-07-25T15:23:36.607Z,35.30
2022-07-25T15:26:40.851Z,35.41
2022-07-25T15:29:43.577Z,35.52
2022-07-25T15:32:46.276Z,35.58
2022-07-25T15:35:49.292Z,35.54
2022-07-25T15:38:52.034Z,35.52
2022-07-25T15:41:56.050Z,35.46
2022-07-25T15:48:21.468Z,35.50
2022-07-25T15:51:24.823Z,35.51
2022-07-25T15:54:29.679Z,35.49
2022-07-25T15:57:34.294Z,35.42
2022-07-25T16:00:38.760Z,35.32
2022-07-25T16:03:41.799Z,35.23
2022-07-25T16:06:45.460Z,35.18
2022-07-25T16:09:48.295Z,35.14
2022-07-25T16:12:52.472Z,35.02
2022-07-25T16:15:55.821Z,34.91
2022-07-25T16:18:58.870Z,34.79
2022-07-25T16:22:01.533Z,34.73
2022-07-25T16:25:05.761Z,34.65
2022-07-25T16:28:09.837Z,34.45
2022-07-25T16:31:12.667Z,34.12
2022-07-25T16:34:15.337Z,33.68
2022-07-25T16:37:18.209Z,33.57
2022-07-25T16:40:21.401Z,33.33
2022-07-25T16:43:26.293Z,33.18
2022-07-25T16:46:29.411Z,33.09
2022-07-25T16:49:32.123Z,33.06
2022-07-25T16:52:34.812Z,33.10
2022-07-25T16:55:37.609Z,33.24
2022-07-25T16:58:41.669Z,33.34
2022-07-25T17:01:46.718Z,32.88
2022-07-25T17:04:49.652Z,32.52
2022-07-25T17:07:59.028Z,32.24
2022-07-25T17:11:02.503Z,32.07
2022-07-25T17:14:06.576Z,32.11
2022-07-25T17:17:09.335Z,32.01
2022-07-25T17:20:12.889Z,31.99
2022-07-25T17:23:15.834Z,32.03
2022-07-25T17:26:18.631Z,31.69
2022-07-25T17:29:22.844Z,31.74
2022-07-25T17:32:29.659Z,31.57
2022-07-25T17:35:32.574Z,31.66
2022-07-25T17:38:35.434Z,31.59
2022-07-25T17:41:38.073Z,31.40
2022-07-25T17:44:42.205Z,31.23
2022-07-25T17:47:45.343Z,31.07
2022-07-25T17:50:48.033Z,30.98
2022-07-25T17:53:50.665Z,30.92
2022-07-25T17:56:53.368Z,30.91
2022-07-25T17:59:57.660Z,30.81
2022-07-25T18:03:00.852Z,30.76
2022-07-25T18:06:04.860Z,30.64
2022-07-25T18:09:08.286Z,30.55
2022-07-25T18:12:11.152Z,30.42
2022-07-25T18:15:15.607Z,30.35
2022-07-25T18:18:20.503Z,30.28
2022-07-25T18:21:24.431Z,30.20
2022-07-25T18:24:29.325Z,30.11
2022-07-25T18:27:32.491Z,30.07
2022-07-25T18:30:36.545Z,30.01
2022-07-25T18:33:39.392Z,29.98
2022-07-25T18:36:42.930Z,29.94
2022-07-25T18:39:47.828Z,29.86
2022-07-25T18:42:50.525Z,29.80
2022-07-25T18:45:54.634Z,29.70
2022-07-25T18:48:57.449Z,29.61
2022-07-25T18:52:00.217Z,29.48
2022-07-25T18:55:04.481Z,29.38
2022-07-25T18:58:08.865Z,29.28
2022-07-25T19:01:13.299Z,29.14
2022-07-25T19:04:17.342Z,28.99
2022-07-25T19:07:20.068Z,28.92
2022-07-25T19:10:22.859Z,28.88
2022-07-25T19:13:47.624Z,28.76
2022-07-25T19:16:50.439Z,28.63
2022-07-25T19:19:54.078Z,28.51
2022-07-25T19:22:56.759Z,28.48
2022-07-25T19:26:00.053Z,28.40
2022-07-25T19:29:03.194Z,28.37
2022-07-25T19:32:07.524Z,28.32
2022-07-25T19:35:10.490Z,28.23
2022-07-25T19:38:13.672Z,28.10
2022-07-25T19:41:16.406Z,28.07
2022-07-25T19:44:19.726Z,28.02
2022-07-25T19:47:23.916Z,28.10
2022-07-25T19:50:26.709Z,27.86
2022-07-25T19:53:29.479Z,27.75
2022-07-25T19:56:34.157Z,27.77
2022-07-25T19:59:36.932Z,27.63
2022-07-25T20:02:43.287Z,27.78
2022-07-25T20:05:46.214Z,27.62
2022-07-25T20:08:49.023Z,27.49
2022-07-25T20:11:51.751Z,27.57
2022-07-25T20:14:54.540Z,27.49
2022-07-25T20:17:59.593Z,27.41
2022-07-25T20:21:02.403Z,27.34
2022-07-25T20:24:05.607Z,27.25
2022-07-25T20:27:08.291Z,27.22
2022-07-25T20:30:13.328Z,27.10
2022-07-25T20:33:17.474Z,27.04
2022-07-25T20:36:20.831Z,26.77
2022-07-25T20:39:23.524Z,26.81
2022-07-25T20:42:26.257Z,26.71
2022-07-25T20:45:28.985Z,26.63
2022-07-25T20:48:33.208Z,26.50
2022-07-25T20:51:37.562Z,26.42
2022-07-25T20:54:42.200Z,26.33
2022-07-25T20:57:50.119Z,26.22
2022-07-25T21:00:53.293Z,26.15
2022-07-25T21:03:57.338Z,26.09
2022-07-25T21:07:00.160Z,26.05
2022-07-25T21:10:03.005Z,25.98
2022-07-25T21:13:05.860Z,25.94
2022-07-25T21:16:09.254Z,25.87
2022-07-25T21:19:13.494Z,25.85
2022-07-25T21:22:16.382Z,25.82
2022-07-25T21:25:19.518Z,25.77
2022-07-25T21:28:22.393Z,25.70
2022-07-25T21:31:25.322Z,25.61
2022-07-25T21:34:29.397Z,25.57
2022-07-25T21:37:32.262Z,25.54
2022-07-25T21:40:35.142Z,25.47
2022-07-25T21:43:37.872Z,25.48
2022-07-25T21:46:40.750Z,25.44
2022-07-25T21:50:03.856Z,25.36
2022-07-25T21:53:07.407Z,25.27
2022-07-25T21:56:10.192Z,25.18
2022-07-25T21:59:12.945Z,25.09
2022-07-25T22:02:15.842Z,25.04
2022-07-25T22:05:20.570Z,24.98
2022-07-25T22:08:23.242Z,24.97
2022-07-25T22:11:42.459Z,24.91
2022-07-25T22:14:48.616Z,24.87
2022-07-25T22:17:51.894Z,24.80
2022-07-25T22:20:55.930Z,24.78
2022-07-25T22:23:58.620Z,24.75
2022-07-25T22:27:01.854Z,24.71
2022-07-25T22:30:06.124Z,24.66
2022-07-25T22:33:08.879Z,24.65
2022-07-25T22:36:13.087Z,24.64
2022-07-25T22:39:16.744Z,24.62
2022-07-25T22:42:19.521Z,24.58
2022-07-25T22:45:24.203Z,24.48
2022-07-25T22:48:27.002Z,24.36
2022-07-25T22:51:31.925Z,24.35
2022-07-25T22:54:35.388Z,24.29
2022-07-25T22:57:38.244Z,24.33
2022-07-25T23:00:41.266Z,24.26
2022-07-25T23:03:44.292Z,24.18
2022-07-25T23:06:48.346Z,24.16
2022-07-25T23:09:51.705Z,24.01
2022-07-25T23:12:54.439Z,23.98
2022-07-25T23:15:57.307Z,23.92
2022-07-25T23:19:00.017Z,23.94
2022-07-25T23:22:04.342Z,23.96
2022-07-25T23:25:10.514Z,24.05
2022-07-25T23:28:13.262Z,24.11
2022-07-25T23:31:16.015Z,24.21
2022-07-25T23:34:18.971Z,24.27
2022-07-25T23:37:23.469Z,24.29
2022-07-25T23:40:26.779Z,24.28
2022-07-25T23:43:56.338Z,24.24
2022-07-25T23:46:52.771Z,24.25
2022-07-25T23:49:56.124Z,24.28
2022-07-25T23:53:00.873Z,24.32
2022-07-25T23:56:04.186Z,24.39
2022-07-25T23:59:07.225Z,24.33
